createdAt,value
2023-04-15T00:00:31.382Z,216.35
2023-04-15T00:01:31.308Z,215.15
2023-04-15T00:02:31.345Z,218.50
2023-04-15T00:03:31.317Z,215.15
2023-04-15T00:04:31.174Z,214.81
2023-04-15T00:05:31.027Z,217.27
2023-04-15T00:06:31.002Z,215.53
2023-04-15T00:07:30.971Z,213.60
2023-04-15T00:08:30.983Z,214.24
2023-04-15T00:09:30.925Z,214.95
2023-04-15T00:10:30.908Z,215.34
2023-04-15T00:11:30.874Z,215.44
2023-04-15T00:12:30.845Z,217.64
2023-04-15T00:13:30.811Z,213.71
2023-04-15T00:14:30.793Z,216.11
2023-04-15T00:15:30.757Z,217.26
2023-04-15T00:16:30.749Z,214.52
2023-04-15T00:17:30.740Z,213.99
2023-04-15T00:18:30.683Z,211.24
2023-04-15T00:19:30.631Z,211.11
2023-04-15T00:20:30.603Z,211.63
2023-04-15T00:21:30.573Z,212.59
2023-04-15T00:22:30.532Z,212.46
2023-04-15T00:23:30.501Z,214.09
2023-04-15T00:24:30.474Z,209.92
2023-04-15T00:25:30.442Z,212.34
2023-04-15T00:26:30.404Z,210.55
2023-04-15T00:27:30.368Z,213.53
2023-04-15T00:28:30.326Z,210.22
2023-04-15T00:29:30.306Z,210.31
2023-04-15T00:30:30.342Z,210.14
2023-04-15T00:31:30.263Z,212.25
2023-04-15T00:32:30.210Z,210.59
2023-04-15T00:33:30.159Z,209.64
2023-04-15T00:34:30.129Z,208.42
2023-04-15T00:35:30.084Z,208.00
2023-04-15T00:36:30.058Z,205.34
2023-04-15T00:37:30.024Z,207.45
2023-04-15T00:38:29.996Z,205.71
2023-04-15T00:39:29.965Z,205.43
2023-04-15T00:40:29.926Z,204.54
2023-04-15T00:41:29.892Z,207.53
2023-04-15T00:42:29.873Z,204.97
2023-04-15T00:43:29.843Z,204.35
2023-04-15T00:44:29.815Z,205.39
2023-04-15T00:45:29.788Z,206.49
2023-04-15T00:46:29.737Z,204.64
2023-04-15T00:47:29.732Z,201.03
2023-04-15T00:48:29.662Z,205.70
2023-04-15T00:49:29.622Z,201.39
2023-04-15T00:50:29.582Z,202.70
2023-04-15T00:51:29.551Z,204.30
2023-04-15T00:52:29.527Z,206.73
2023-04-15T00:53:29.508Z,202.76
2023-04-15T00:54:29.480Z,206.08
2023-04-15T00:55:29.467Z,201.05
2023-04-15T00:56:29.439Z,201.90
2023-04-15T00:57:29.409Z,204.14
2023-04-15T00:58:29.391Z,200.24
2023-04-15T00:59:29.359Z,201.90
2023-04-15T01:00:30.037Z,203.97
2023-04-15T01:01:29.332Z,201.53
2023-04-15T01:02:29.488Z,203.16
2023-04-15T01:03:29.351Z,199.92
2023-04-15T01:04:29.283Z,200.67
2023-04-15T01:05:29.189Z,202.96
2023-04-15T01:06:29.214Z,201.60
2023-04-15T01:07:29.127Z,201.93
2023-04-15T01:08:29.111Z,200.46
2023-04-15T01:09:29.076Z,203.51
2023-04-15T01:10:29.039Z,199.41
2023-04-15T01:11:29.011Z,203.10
2023-04-15T01:12:28.977Z,201.05
2023-04-15T01:13:28.955Z,202.76
2023-04-15T01:14:28.923Z,203.00
2023-04-15T01:15:28.885Z,201.02
2023-04-15T01:16:28.913Z,202.87
2023-04-15T01:17:28.829Z,203.05
2023-04-15T01:18:28.786Z,201.09
2023-04-15T01:19:28.749Z,202.31
2023-04-15T01:20:28.730Z,201.29
2023-04-15T01:21:28.682Z,200.67
2023-04-15T01:22:28.656Z,200.47
2023-04-15T01:23:28.616Z,198.86
2023-04-15T01:24:28.595Z,201.14
2023-04-15T01:25:28.571Z,201.23
2023-04-15T01:26:28.536Z,199.35
2023-04-15T01:27:28.509Z,199.60
2023-04-15T01:28:28.502Z,200.98
2023-04-15T01:29:28.456Z,197.66
2023-04-15T01:30:28.443Z,199.63
2023-04-15T01:31:28.427Z,200.81
2023-04-15T01:32:28.391Z,196.78
2023-04-15T01:33:28.352Z,200.55
2023-04-15T01:34:28.331Z,198.28
2023-04-15T01:35:28.303Z,197.88
2023-04-15T01:36:28.278Z,198.15
2023-04-15T01:37:28.260Z,199.33
2023-04-15T01:38:28.239Z,198.45
2023-04-15T01:39:28.209Z,197.77
2023-04-15T01:40:28.190Z,197.88
2023-04-15T01:41:28.184Z,199.25
2023-04-15T01:42:28.161Z,199.45
2023-04-15T01:43:28.131Z,197.26
2023-04-15T01:44:28.115Z,196.39
2023-04-15T01:45:28.117Z,197.70
2023-04-15T01:46:28.123Z,193.03
2023-04-15T01:47:28.135Z,199.58
2023-04-15T01:48:28.062Z,196.13
2023-04-15T01:49:28.044Z,195.19
2023-04-15T01:50:28.030Z,195.20
2023-04-15T01:51:28.011Z,198.27
2023-04-15T01:52:28.002Z,195.83
2023-04-15T01:53:27.994Z,194.58
2023-04-15T01:54:27.977Z,197.14
2023-04-15T01:55:27.966Z,197.75
2023-04-15T01:56:27.954Z,195.96
2023-04-15T01:57:27.932Z,196.73
2023-04-15T01:58:27.932Z,195.07
2023-04-15T01:59:27.905Z,197.65
2023-04-15T02:00:27.895Z,196.59
2023-04-15T02:01:27.985Z,197.72
2023-04-15T02:02:27.924Z,194.72
2023-04-15T02:03:27.980Z,195.62
2023-04-15T02:04:27.814Z,194.28
2023-04-15T02:05:27.817Z,197.44
2023-04-15T02:06:27.793Z,195.89
2023-04-15T02:07:27.779Z,196.70
2023-04-15T02:08:27.766Z,193.89
2023-04-15T02:09:27.750Z,195.44
2023-04-15T02:10:27.739Z,196.00
2023-04-15T02:11:27.722Z,193.70
2023-04-15T02:12:27.705Z,193.53
2023-04-15T02:13:27.691Z,195.48
2023-04-15T02:14:27.680Z,195.11
2023-04-15T02:15:27.672Z,195.38
2023-04-15T02:16:27.662Z,195.32
2023-04-15T02:17:27.692Z,193.17
2023-04-15T02:18:27.626Z,194.74
2023-04-15T02:19:27.622Z,194.66
2023-04-15T02:20:27.612Z,193.17
2023-04-15T02:21:27.576Z,192.56
2023-04-15T02:22:27.552Z,189.93
2023-04-15T02:23:27.537Z,191.43
2023-04-15T02:24:27.522Z,192.42
2023-04-15T02:25:27.511Z,193.58
2023-04-15T02:26:27.499Z,192.00
2023-04-15T02:27:27.481Z,190.95
2023-04-15T02:28:27.470Z,190.78
2023-04-15T02:29:27.464Z,189.13
2023-04-15T02:30:27.452Z,191.62
2023-04-15T02:31:27.500Z,193.92
2023-04-15T02:32:27.437Z,188.76
2023-04-15T02:33:27.400Z,190.34
2023-04-15T02:34:27.385Z,189.67
2023-04-15T02:35:27.378Z,189.52
2023-04-15T02:36:27.355Z,188.45
2023-04-15T02:37:27.353Z,191.54
2023-04-15T02:38:27.333Z,192.50
2023-04-15T02:39:27.351Z,188.05
2023-04-15T02:40:27.319Z,189.94
2023-04-15T02:41:27.292Z,189.48
2023-04-15T02:42:27.284Z,190.07
2023-04-15T02:43:27.298Z,190.00
2023-04-15T02:44:27.268Z,186.89
2023-04-15T02:45:27.245Z,188.67
2023-04-15T02:46:27.271Z,186.76
2023-04-15T02:47:27.242Z,186.57
2023-04-15T02:48:27.212Z,187.41
2023-04-15T02:49:27.207Z,184.85
2023-04-15T02:50:27.201Z,186.51
2023-04-15T02:51:27.249Z,186.79
2023-04-15T02:52:27.180Z,185.57
2023-04-15T02:53:27.167Z,187.44
2023-04-15T02:54:27.157Z,186.52
2023-04-15T02:55:27.171Z,187.34
2023-04-15T02:56:27.141Z,187.83
2023-04-15T02:57:27.134Z,185.17
2023-04-15T02:58:27.125Z,187.49
2023-04-15T02:59:27.112Z,185.27
2023-04-15T03:00:27.111Z,186.67
2023-04-15T03:01:27.145Z,188.25
2023-04-15T03:02:27.209Z,185.48
2023-04-15T03:03:27.139Z,182.28
2023-04-15T03:04:27.076Z,184.82
2023-04-15T03:05:27.068Z,183.65
2023-04-15T03:06:27.062Z,184.77
2023-04-15T03:07:27.054Z,184.19
2023-04-15T03:08:27.051Z,181.77
2023-04-15T03:09:27.038Z,179.17
2023-04-15T03:10:27.029Z,177.62
2023-04-15T03:11:27.030Z,183.13
2023-04-15T03:12:27.012Z,180.19
2023-04-15T03:13:27.004Z,183.99
2023-04-15T03:14:26.993Z,180.51
2023-04-15T03:15:27.023Z,180.79
2023-04-15T03:16:26.970Z,178.99
2023-04-15T03:17:26.973Z,179.08
2023-04-15T03:18:26.939Z,180.01
2023-04-15T03:19:26.938Z,178.12
2023-04-15T03:20:26.968Z,174.96
2023-04-15T03:21:26.924Z,179.07
2023-04-15T03:22:26.913Z,179.22
2023-04-15T03:23:26.907Z,177.88
2023-04-15T03:24:26.908Z,178.25
2023-04-15T03:25:26.886Z,179.26
2023-04-15T03:26:26.870Z,177.83
2023-04-15T03:27:26.857Z,177.66
2023-04-15T03:28:26.840Z,177.21
2023-04-15T03:29:26.839Z,174.58
2023-04-15T03:30:26.831Z,178.75
2023-04-15T03:31:26.896Z,178.23
2023-04-15T03:32:26.834Z,175.54
2023-04-15T03:33:26.776Z,176.03
2023-04-15T03:34:26.768Z,177.96
2023-04-15T03:35:26.752Z,176.28
2023-04-15T03:36:26.735Z,175.98
2023-04-15T03:37:26.717Z,175.52
2023-04-15T03:38:26.701Z,173.54
2023-04-15T03:39:26.695Z,174.86
2023-04-15T03:40:26.688Z,176.38
2023-04-15T03:41:26.694Z,174.82
2023-04-15T03:42:26.666Z,174.97
2023-04-15T03:43:26.658Z,173.62
2023-04-15T03:44:26.644Z,172.59
2023-04-15T03:45:26.643Z,174.48
2023-04-15T03:46:26.650Z,174.37
2023-04-15T03:47:26.619Z,173.47
2023-04-15T03:48:26.588Z,171.97
2023-04-15T03:49:26.567Z,170.95
2023-04-15T03:50:26.631Z,172.24
2023-04-15T03:51:26.535Z,172.01
2023-04-15T03:52:26.531Z,173.12
2023-04-15T03:53:26.524Z,171.90
2023-04-15T03:54:26.551Z,172.57
2023-04-15T03:55:26.511Z,172.53
2023-04-15T03:56:26.496Z,168.53
2023-04-15T03:57:26.512Z,172.14
2023-04-15T03:58:26.502Z,173.34
2023-04-15T03:59:26.494Z,169.54
2023-04-15T04:00:26.492Z,172.38
2023-04-15T04:01:26.470Z,171.88
2023-04-15T04:02:26.755Z,170.06
2023-04-15T04:03:26.578Z,171.87
2023-04-15T04:04:26.487Z,171.06
2023-04-15T04:05:26.449Z,168.27
2023-04-15T04:06:26.436Z,169.32
2023-04-15T04:07:26.445Z,169.09
2023-04-15T04:08:26.422Z,171.64
2023-04-15T04:09:26.428Z,170.00
2023-04-15T04:10:26.401Z,167.75
2023-04-15T04:11:26.366Z,167.82
2023-04-15T04:12:26.360Z,167.52
2023-04-15T04:13:26.352Z,166.89
2023-04-15T04:14:26.316Z,169.92
2023-04-15T04:15:26.333Z,167.81
2023-04-15T04:16:26.389Z,169.79
2023-04-15T04:17:26.280Z,162.99
2023-04-15T04:18:26.247Z,164.18
2023-04-15T04:19:26.235Z,165.97
2023-04-15T04:20:26.223Z,164.49
2023-04-15T04:21:26.207Z,160.95
2023-04-15T04:22:26.204Z,165.47
2023-04-15T04:23:26.187Z,166.35
2023-04-15T04:24:26.184Z,166.50
2023-04-15T04:25:26.176Z,165.56
2023-04-15T04:26:26.136Z,163.58
2023-04-15T04:27:26.133Z,162.14
2023-04-15T04:28:26.136Z,165.30
2023-04-15T04:29:26.098Z,163.16
2023-04-15T04:30:26.095Z,164.62
2023-04-15T04:31:26.105Z,164.16
2023-04-15T04:32:26.078Z,162.76
2023-04-15T04:33:26.041Z,162.92
2023-04-15T04:34:26.032Z,164.74
2023-04-15T04:35:26.030Z,163.58
2023-04-15T04:36:26.028Z,167.00
2023-04-15T04:37:26.020Z,163.63
2023-04-15T04:38:26.013Z,162.83
2023-04-15T04:39:26.021Z,163.16
2023-04-15T04:40:25.997Z,162.88
2023-04-15T04:41:25.989Z,161.71
2023-04-15T04:42:25.983Z,163.80
2023-04-15T04:43:25.975Z,163.04
2023-04-15T04:44:25.951Z,162.92
2023-04-15T04:45:25.959Z,161.64
2023-04-15T04:46:25.953Z,160.11
2023-04-15T04:47:25.965Z,162.76
2023-04-15T04:48:25.923Z,166.43
2023-04-15T04:49:25.883Z,162.98
2023-04-15T04:50:25.873Z,164.12
2023-04-15T04:51:25.848Z,162.72
2023-04-15T04:52:25.820Z,163.18
2023-04-15T04:53:25.805Z,162.06
2023-04-15T04:54:25.810Z,161.39
2023-04-15T04:55:25.789Z,162.47
2023-04-15T04:56:25.781Z,162.11
2023-04-15T04:57:25.762Z,157.39
2023-04-15T04:58:25.744Z,159.18
2023-04-15T04:59:25.744Z,162.12
2023-04-15T05:00:25.736Z,160.93
2023-04-15T05:01:25.804Z,164.60
2023-04-15T05:02:25.838Z,159.56
2023-04-15T05:03:25.753Z,162.29
2023-04-15T05:04:25.683Z,158.33
2023-04-15T05:05:25.680Z,158.72
2023-04-15T05:06:25.649Z,161.79
2023-04-15T05:07:25.641Z,161.73
2023-04-15T05:08:25.626Z,160.00
2023-04-15T05:09:25.615Z,160.60
2023-04-15T05:10:25.584Z,160.39
2023-04-15T05:11:25.571Z,162.98
2023-04-15T05:12:25.553Z,160.45
2023-04-15T05:13:25.536Z,162.58
2023-04-15T05:14:25.535Z,158.11
2023-04-15T05:15:25.501Z,158.48
2023-04-15T05:16:25.491Z,158.68
2023-04-15T05:17:25.523Z,162.27
2023-04-15T05:18:25.488Z,162.01
2023-04-15T05:19:25.488Z,160.62
2023-04-15T05:20:25.478Z,158.95
2023-04-15T05:21:25.470Z,159.83
2023-04-15T05:22:25.479Z,155.95
2023-04-15T05:23:25.469Z,157.48
2023-04-15T05:24:25.462Z,159.75
2023-04-15T05:25:25.446Z,159.55
2023-04-15T05:26:25.432Z,155.68
2023-04-15T05:27:25.414Z,159.13
2023-04-15T05:28:25.408Z,160.23
2023-04-15T05:29:25.405Z,157.49
2023-04-15T05:30:25.414Z,156.94
2023-04-15T05:31:25.425Z,161.84
2023-04-15T05:32:25.442Z,158.42
2023-04-15T05:33:25.396Z,158.71
2023-04-15T05:34:25.392Z,157.98
2023-04-15T05:35:25.383Z,157.72
2023-04-15T05:36:25.383Z,157.77
2023-04-15T05:37:25.380Z,157.06
2023-04-15T05:38:25.370Z,158.39
2023-04-15T05:39:25.374Z,155.95
2023-04-15T05:40:25.364Z,156.79
2023-04-15T05:41:25.350Z,154.76
2023-04-15T05:42:25.317Z,157.46
2023-04-15T05:43:25.291Z,156.28
2023-04-15T05:44:25.269Z,156.38
2023-04-15T05:45:25.248Z,158.06
2023-04-15T05:46:25.270Z,153.13
2023-04-15T05:47:25.263Z,154.71
2023-04-15T05:48:25.167Z,154.73
2023-04-15T05:49:25.156Z,154.33
2023-04-15T05:50:25.161Z,155.01
2023-04-15T05:51:25.150Z,156.48
2023-04-15T05:52:25.131Z,155.38
2023-04-15T05:53:25.130Z,159.02
2023-04-15T05:54:25.116Z,157.96
2023-04-15T05:55:25.115Z,154.57
2023-04-15T05:56:25.109Z,156.08
2023-04-15T05:57:25.109Z,156.45
2023-04-15T05:58:25.094Z,159.71
2023-04-15T05:59:25.093Z,156.19
2023-04-15T06:00:25.095Z,156.42
2023-04-15T06:01:25.083Z,153.33
2023-04-15T06:02:25.121Z,151.58
2023-04-15T06:03:25.161Z,149.57
2023-04-15T06:04:25.125Z,154.60
2023-04-15T06:05:25.046Z,155.14
2023-04-15T06:06:25.058Z,153.19
2023-04-15T06:07:25.024Z,154.56
2023-04-15T06:08:25.008Z,156.65
2023-04-15T06:09:24.990Z,153.10
2023-04-15T06:10:24.987Z,150.00
2023-04-15T06:11:24.982Z,152.28
2023-04-15T06:12:24.962Z,152.58
2023-04-15T06:13:24.955Z,152.73
2023-04-15T06:14:24.937Z,153.59
2023-04-15T06:15:24.908Z,153.81
2023-04-15T06:16:24.926Z,154.79
2023-04-15T06:17:24.883Z,154.52
2023-04-15T06:18:24.841Z,147.33
2023-04-15T06:19:24.850Z,152.74
2023-04-15T06:20:24.907Z,151.80
2023-04-15T06:21:24.810Z,152.94
2023-04-15T06:22:24.788Z,151.51
2023-04-15T06:23:26.291Z,154.54
2023-04-15T06:24:24.757Z,152.45
2023-04-15T06:25:24.786Z,152.05
2023-04-15T06:26:24.723Z,155.95
2023-04-15T06:27:24.686Z,151.97
2023-04-15T06:28:24.665Z,151.35
2023-04-15T06:29:24.650Z,153.45
2023-04-15T06:30:24.652Z,151.68
2023-04-15T06:31:24.692Z,151.90
2023-04-15T06:32:24.643Z,152.67
2023-04-15T06:33:24.614Z,153.44
2023-04-15T06:34:24.585Z,153.79
2023-04-15T06:35:24.577Z,152.47
2023-04-15T06:36:24.582Z,151.21
2023-04-15T06:37:24.549Z,153.70
2023-04-15T06:38:24.527Z,153.32
2023-04-15T06:39:24.518Z,152.07
2023-04-15T06:40:24.510Z,152.64
2023-04-15T06:41:24.493Z,152.28
2023-04-15T06:42:24.470Z,153.41
2023-04-15T06:43:24.468Z,153.44
2023-04-15T06:44:24.440Z,152.89
2023-04-15T06:45:24.441Z,148.74
2023-04-15T06:46:24.569Z,152.57
2023-04-15T06:47:24.393Z,152.96
2023-04-15T06:48:24.331Z,149.59
2023-04-15T06:49:24.315Z,152.17
2023-04-15T06:50:24.294Z,149.06
2023-04-15T06:51:25.584Z,148.32
2023-04-15T06:52:24.239Z,150.68
2023-04-15T06:53:24.228Z,153.79
2023-04-15T06:54:24.203Z,151.72
2023-04-15T06:55:24.172Z,154.09
2023-04-15T06:56:24.157Z,153.97
2023-04-15T06:57:24.122Z,152.63
2023-04-15T06:58:24.097Z,150.78
2023-04-15T06:59:24.055Z,152.19
2023-04-15T07:00:24.042Z,153.85
2023-04-15T07:01:24.016Z,149.29
2023-04-15T07:02:24.054Z,152.07
2023-04-15T07:03:24.023Z,153.56
2023-04-15T07:04:23.929Z,153.05
2023-04-15T07:05:23.877Z,147.75
2023-04-15T07:06:23.847Z,155.41
2023-04-15T07:07:23.805Z,152.31
2023-04-15T07:08:23.767Z,151.90
2023-04-15T07:09:23.709Z,151.49
2023-04-15T07:10:24.566Z,153.58
2023-04-15T07:11:23.628Z,151.35
2023-04-15T07:12:23.596Z,152.39
2023-04-15T07:13:23.537Z,155.03
2023-04-15T07:14:23.493Z,154.35
2023-04-15T07:15:23.449Z,150.68
2023-04-15T07:16:23.417Z,154.44
2023-04-15T07:17:23.392Z,152.04
2023-04-15T07:18:23.304Z,151.12
2023-04-15T07:19:23.281Z,150.92
2023-04-15T07:20:23.256Z,151.89
2023-04-15T07:21:23.163Z,152.70
2023-04-15T07:22:23.150Z,152.54
2023-04-15T07:23:23.063Z,156.04
2023-04-15T07:24:23.003Z,151.05
2023-04-15T07:25:22.946Z,154.10
2023-04-15T07:26:22.892Z,153.36
2023-04-15T07:27:22.854Z,152.04
2023-04-15T07:28:22.796Z,152.14
2023-04-15T07:29:22.723Z,152.28
2023-04-15T07:30:22.668Z,149.53
2023-04-15T07:31:22.688Z,150.36
2023-04-15T07:32:22.580Z,150.59
2023-04-15T07:33:22.502Z,151.73
2023-04-15T07:34:22.428Z,148.68
2023-04-15T07:35:22.402Z,149.70
2023-04-15T07:36:22.307Z,149.21
2023-04-15T07:37:22.241Z,149.93
2023-04-15T07:38:22.187Z,149.75
2023-04-15T07:39:22.107Z,150.66
2023-04-15T07:40:22.052Z,144.24
2023-04-15T07:41:21.975Z,148.28
2023-04-15T07:42:21.937Z,149.86
2023-04-15T07:43:21.853Z,146.02
2023-04-15T07:44:21.817Z,147.44
2023-04-15T07:45:21.729Z,146.63
2023-04-15T07:46:21.712Z,147.16
2023-04-15T07:47:21.625Z,146.83
2023-04-15T07:48:21.534Z,146.19
2023-04-15T07:49:21.541Z,147.90
2023-04-15T07:50:21.407Z,144.37
2023-04-15T07:51:21.329Z,146.94
2023-04-15T07:52:21.280Z,145.36
2023-04-15T07:53:21.209Z,149.62
2023-04-15T07:54:21.132Z,143.69
2023-04-15T07:55:21.070Z,145.74
2023-04-15T07:56:21.014Z,145.38
2023-04-15T07:57:20.937Z,146.92
2023-04-15T07:58:20.874Z,149.29
2023-04-15T07:59:20.800Z,144.48
2023-04-15T08:00:20.744Z,147.44
2023-04-15T08:01:20.678Z,144.29
2023-04-15T08:02:20.704Z,144.64
2023-04-15T08:03:20.677Z,145.54
2023-04-15T08:04:20.675Z,145.23
2023-04-15T08:05:20.449Z,144.89
2023-04-15T08:06:20.357Z,146.11
2023-04-15T08:07:20.288Z,147.40
2023-04-15T08:08:20.241Z,144.85
2023-04-15T08:09:20.170Z,145.09
2023-04-15T08:10:20.106Z,142.55
2023-04-15T08:11:20.051Z,145.40
2023-04-15T08:12:20.003Z,147.60
2023-04-15T08:13:19.920Z,142.70
2023-04-15T08:14:19.844Z,143.72
2023-04-15T08:15:19.780Z,144.82
2023-04-15T08:16:19.887Z,146.24
2023-04-15T08:17:19.668Z,150.43
2023-04-15T08:18:19.595Z,145.45
2023-04-15T08:19:19.512Z,148.11
2023-04-15T08:20:19.465Z,147.18
2023-04-15T08:21:19.396Z,145.54
2023-04-15T08:22:20.636Z,144.36
2023-04-15T08:23:19.383Z,143.89
2023-04-15T08:24:19.376Z,144.75
2023-04-15T08:25:19.239Z,145.14
2023-04-15T08:26:19.166Z,147.29
2023-04-15T08:27:19.107Z,144.63
2023-04-15T08:28:19.037Z,146.35
2023-04-15T08:29:18.971Z,145.42
2023-04-15T08:30:18.930Z,145.19
2023-04-15T08:31:18.851Z,147.03
2023-04-15T08:32:18.765Z,146.89
2023-04-15T08:33:18.673Z,149.17
2023-04-15T08:34:18.607Z,145.69
2023-04-15T08:35:18.545Z,145.10
2023-04-15T08:36:18.472Z,147.26
2023-04-15T08:37:18.403Z,146.83
2023-04-15T08:38:18.338Z,145.22
2023-04-15T08:39:18.272Z,147.42
2023-04-15T08:40:18.210Z,147.47
2023-04-15T08:41:18.136Z,145.06
2023-04-15T08:42:18.070Z,145.54
2023-04-15T08:43:18.000Z,144.71
2023-04-15T08:44:17.971Z,145.84
2023-04-15T08:45:17.901Z,143.60
2023-04-15T08:46:17.899Z,144.62
2023-04-15T08:47:17.839Z,146.14
2023-04-15T08:48:17.820Z,147.85
2023-04-15T08:49:17.777Z,142.74
2023-04-15T08:50:17.711Z,142.62
2023-04-15T08:51:17.704Z,143.50
2023-04-15T08:52:17.666Z,143.33
2023-04-15T08:53:17.605Z,143.54
2023-04-15T08:54:17.549Z,145.31
2023-04-15T08:55:17.483Z,144.17
2023-04-15T08:56:17.477Z,145.09
2023-04-15T08:57:17.389Z,144.05
2023-04-15T08:58:17.345Z,144.57
2023-04-15T08:59:17.311Z,141.38
2023-04-15T09:00:17.303Z,144.56
2023-04-15T09:01:17.259Z,147.15
2023-04-15T09:02:17.309Z,145.79
2023-04-15T09:03:17.215Z,141.99
2023-04-15T09:04:17.226Z,145.29
2023-04-15T09:05:17.110Z,145.48
2023-04-15T09:06:17.088Z,146.48
2023-04-15T09:07:17.044Z,145.69
2023-04-15T09:08:17.157Z,147.79
2023-04-15T09:09:17.030Z,145.87
2023-04-15T09:10:17.015Z,144.18
2023-04-15T09:11:18.942Z,145.32
2023-04-15T09:12:16.935Z,145.01
2023-04-15T09:13:16.826Z,146.40
2023-04-15T09:14:16.731Z,147.16
2023-04-15T09:15:16.668Z,144.91
2023-04-15T09:16:16.586Z,143.10
2023-04-15T09:17:16.484Z,147.05
2023-04-15T09:18:16.394Z,147.71
2023-04-15T09:19:16.305Z,145.36
2023-04-15T09:20:16.277Z,146.28
2023-04-15T09:21:16.168Z,144.16
2023-04-15T09:22:16.086Z,147.21
2023-04-15T09:23:16.030Z,147.98
2023-04-15T09:24:15.927Z,145.14
2023-04-15T09:25:15.848Z,146.25
2023-04-15T09:26:15.762Z,144.03
2023-04-15T09:27:15.671Z,143.78
2023-04-15T09:28:15.594Z,144.01
2023-04-15T09:29:15.519Z,146.80
2023-04-15T09:30:15.437Z,146.89
2023-04-15T09:31:15.397Z,144.77
2023-04-15T09:32:15.304Z,144.34
2023-04-15T09:33:15.191Z,145.14
2023-04-15T09:34:15.107Z,142.60
2023-04-15T09:35:15.048Z,142.31
2023-04-15T09:36:14.945Z,142.39
2023-04-15T09:37:28.573Z,144.55
2023-04-15T09:38:15.792Z,144.78
2023-04-15T09:39:14.700Z,145.11
2023-04-15T09:40:14.623Z,145.05
2023-04-15T09:41:14.532Z,141.91
2023-04-15T09:42:14.463Z,146.02
2023-04-15T09:43:14.382Z,144.52
2023-04-15T09:44:14.298Z,146.51
2023-04-15T09:45:14.243Z,143.94
2023-04-15T09:46:14.200Z,144.19
2023-04-15T09:47:14.049Z,144.76
2023-04-15T09:48:13.988Z,145.03
2023-04-15T09:49:13.996Z,143.49
2023-04-15T09:50:13.933Z,146.22
2023-04-15T09:51:13.881Z,146.69
2023-04-15T09:52:13.857Z,144.75
2023-04-15T09:53:13.813Z,146.65
2023-04-15T09:54:13.778Z,144.86
2023-04-15T09:55:13.748Z,146.76
2023-04-15T09:56:13.705Z,145.64
2023-04-15T09:57:13.669Z,148.71
2023-04-15T09:58:13.607Z,145.15
2023-04-15T09:59:13.565Z,145.89
2023-04-15T10:00:13.513Z,146.51
2023-04-15T10:01:13.541Z,146.95
2023-04-15T10:02:13.502Z,143.99
2023-04-15T10:03:13.433Z,144.09
2023-04-15T10:04:13.404Z,144.02
2023-04-15T10:05:13.263Z,144.83
2023-04-15T10:06:13.214Z,146.56
2023-04-15T10:07:13.162Z,144.78
2023-04-15T10:08:13.118Z,145.90
2023-04-15T10:09:13.069Z,144.56
2023-04-15T10:10:13.068Z,147.15
2023-04-15T10:11:13.000Z,146.07
2023-04-15T10:12:12.934Z,144.94
2023-04-15T10:13:12.883Z,147.07
2023-04-15T10:14:12.843Z,146.17
2023-04-15T10:15:12.794Z,148.57
2023-04-15T10:16:12.797Z,148.89
2023-04-15T10:17:12.708Z,148.29
2023-04-15T10:18:12.663Z,143.82
2023-04-15T10:19:12.632Z,145.03
2023-04-15T10:20:12.588Z,146.34
2023-04-15T10:21:12.561Z,147.73
2023-04-15T10:22:12.516Z,149.42
2023-04-15T10:23:13.459Z,144.36
2023-04-15T10:24:12.421Z,144.52
2023-04-15T10:25:12.393Z,146.27
2023-04-15T10:26:12.354Z,142.12
2023-04-15T10:27:12.303Z,144.30
2023-04-15T10:28:12.260Z,145.78
2023-04-15T10:29:12.214Z,146.08
2023-04-15T10:30:12.187Z,143.74
2023-04-15T10:31:12.201Z,143.30
2023-04-15T10:32:12.094Z,146.17
2023-04-15T10:33:12.055Z,143.73
2023-04-15T10:34:12.020Z,145.81
2023-04-15T10:35:11.977Z,144.13
2023-04-15T10:36:11.943Z,143.67
2023-04-15T10:37:11.901Z,144.98
2023-04-15T10:38:11.850Z,144.55
2023-04-15T10:39:11.810Z,141.49
2023-04-15T10:40:11.773Z,142.54
2023-04-15T10:41:11.730Z,141.45
2023-04-15T10:42:11.702Z,143.93
2023-04-15T10:43:11.673Z,145.32
2023-04-15T10:44:11.614Z,141.13
2023-04-15T10:45:11.565Z,142.76
2023-04-15T10:46:11.545Z,144.26
2023-04-15T10:47:11.484Z,143.12
2023-04-15T10:48:11.481Z,144.19
2023-04-15T10:49:11.403Z,143.25
2023-04-15T10:50:11.356Z,141.87
2023-04-15T10:51:11.325Z,142.15
2023-04-15T10:52:11.277Z,142.49
2023-04-15T10:53:11.259Z,144.18
2023-04-15T10:54:11.207Z,142.77
2023-04-15T10:55:11.176Z,139.99
2023-04-15T10:56:11.133Z,140.64
2023-04-15T10:57:11.095Z,140.23
2023-04-15T10:58:11.043Z,137.13
2023-04-15T10:59:11.011Z,142.54
2023-04-15T11:00:10.962Z,142.54
2023-04-15T11:01:10.924Z,139.33
2023-04-15T11:02:10.998Z,142.20
2023-04-15T11:03:11.040Z,140.15
2023-04-15T11:04:10.967Z,141.67
2023-04-15T11:05:10.841Z,142.65
2023-04-15T11:06:10.752Z,141.82
2023-04-15T11:07:10.751Z,138.55
2023-04-15T11:08:10.685Z,141.53
2023-04-15T11:09:10.646Z,140.66
2023-04-15T11:10:10.613Z,140.26
2023-04-15T11:11:10.571Z,141.34
2023-04-15T11:12:10.551Z,141.57
2023-04-15T11:13:10.503Z,138.64
2023-04-15T11:14:10.470Z,142.04
2023-04-15T11:15:10.438Z,138.23
2023-04-15T11:16:10.481Z,140.03
2023-04-15T11:17:10.357Z,140.62
2023-04-15T11:18:10.372Z,137.51
2023-04-15T11:19:10.315Z,141.51
2023-04-15T11:20:10.270Z,143.00
2023-04-15T11:21:10.238Z,139.96
2023-04-15T11:22:10.215Z,141.64
2023-04-15T11:23:15.038Z,140.15
2023-04-15T11:24:11.097Z,140.37
2023-04-15T11:25:10.019Z,140.57
2023-04-15T11:26:10.019Z,141.31
2023-04-15T11:27:09.864Z,141.51
2023-04-15T11:28:09.784Z,142.22
2023-04-15T11:29:09.698Z,143.48
2023-04-15T11:30:09.614Z,141.44
2023-04-15T11:31:09.526Z,141.34
2023-04-15T11:32:09.644Z,136.56
2023-04-15T11:33:09.422Z,141.38
2023-04-15T11:34:09.310Z,139.40
2023-04-15T11:35:09.284Z,141.53
2023-04-15T11:36:09.261Z,139.50
2023-04-15T11:37:09.227Z,139.55
2023-04-15T11:38:09.211Z,141.58
2023-04-15T11:39:09.175Z,139.65
2023-04-15T11:40:09.151Z,139.76
2023-04-15T11:41:09.132Z,139.83
2023-04-15T11:42:09.110Z,142.07
2023-04-15T11:43:09.166Z,141.63
2023-04-15T11:44:09.073Z,139.33
2023-04-15T11:45:09.043Z,141.42
2023-04-15T11:46:09.071Z,143.32
2023-04-15T11:47:09.011Z,141.31
2023-04-15T11:48:09.021Z,140.46
2023-04-15T11:49:08.953Z,138.21
2023-04-15T11:50:08.938Z,142.84
2023-04-15T11:51:08.914Z,140.67
2023-04-15T11:52:08.884Z,140.84
2023-04-15T11:53:08.874Z,142.07
2023-04-15T11:54:08.851Z,140.73
2023-04-15T11:55:08.848Z,140.51
2023-04-15T11:56:08.925Z,139.99
2023-04-15T11:57:08.818Z,142.01
2023-04-15T11:58:08.807Z,139.81
2023-04-15T11:59:08.770Z,139.54
2023-04-15T12:00:08.763Z,140.69
2023-04-15T12:01:08.751Z,138.88
2023-04-15T12:02:08.795Z,140.34
2023-04-15T12:03:08.905Z,140.51
2023-04-15T12:04:08.978Z,140.47
2023-04-15T12:05:08.735Z,141.93
2023-04-15T12:06:08.658Z,142.00
2023-04-15T12:07:08.650Z,140.20
2023-04-15T12:08:08.618Z,139.26
2023-04-15T12:09:08.602Z,139.95
2023-04-15T12:10:08.666Z,143.09
2023-04-15T12:11:08.566Z,141.30
2023-04-15T12:12:08.537Z,138.48
2023-04-15T12:13:08.514Z,140.52
2023-04-15T12:14:08.508Z,144.52
2023-04-15T12:15:08.481Z,139.51
2023-04-15T12:16:08.522Z,141.88
2023-04-15T12:17:08.441Z,140.28
2023-04-15T12:18:08.451Z,142.03
2023-04-15T12:19:08.386Z,141.48
2023-04-15T12:20:08.368Z,141.87
2023-04-15T12:21:08.340Z,143.12
2023-04-15T12:22:08.322Z,143.44
2023-04-15T12:23:08.308Z,141.03
2023-04-15T12:24:08.296Z,142.38
2023-04-15T12:25:08.285Z,141.42
2023-04-15T12:26:08.253Z,142.50
2023-04-15T12:27:08.250Z,143.37
2023-04-15T12:28:08.216Z,139.98